Antrim, New Hampshire
Current Conditions -  °F | °C
As of 9:55 AM on Friday 28 Nov 2014 (Local Time) from KEEN Reporting Station
Overcast Overcast  
Wind Chill: -3°   Ceiling: 3700
Heat Index: -3°   Visibility: 10mi
Dew Point: -6°   Wind: 3mph
Humidity: 80%   Direction: 200°SSW
Pressure: 30.08"   Gusts: NA
Location:  43.03°N, 71.95°W
Report Text: KEEN 281455Z AUTO 20003KT 10SM OVC037 M03/M06 A3008 RMK AO1 60001 52014
Loading
Personal Weather Stations






























Interactive Weather Map New forecast layout! Learn more

10-Day Weather Forecast

Advertisements
Track Severe Weather on mobile